createdAt,value
2023-12-11T00:01:37.809Z,13.50
2023-12-11T00:04:05.570Z,13.50
2023-12-11T00:06:33.077Z,13.40
2023-12-11T00:09:00.530Z,13.40
2023-12-11T00:11:27.979Z,13.40
2023-12-11T00:13:55.343Z,13.50
2023-12-11T00:16:22.896Z,13.50
2023-12-11T00:18:55.179Z,13.50
2023-12-11T00:21:22.782Z,13.50
2023-12-11T00:23:50.577Z,13.50
2023-12-11T00:26:18.967Z,13.50
2023-12-11T00:28:50.988Z,13.50
2023-12-11T00:31:19.789Z,13.50
2023-12-11T00:33:47.335Z,13.50
2023-12-11T00:36:14.752Z,13.50
2023-12-11T00:38:42.125Z,13.50
2023-12-11T00:41:10.113Z,13.50
2023-12-11T00:43:44.877Z,13.50
2023-12-11T00:46:24.510Z,13.50
2023-12-11T00:48:58.363Z,13.40
2023-12-11T00:51:25.854Z,13.40
2023-12-11T00:53:53.321Z,13.40
2023-12-11T00:56:20.985Z,13.30
2023-12-11T00:58:53.681Z,13.30
2023-12-11T01:01:21.122Z,13.30
2023-12-11T01:03:48.780Z,13.30
2023-12-11T01:06:16.100Z,13.30
2023-12-11T01:08:43.357Z,13.30
2023-12-11T01:11:13.625Z,13.30
2023-12-11T01:13:43.157Z,13.20
2023-12-11T01:16:10.419Z,13.20
2023-12-11T01:18:38.870Z,13.20
2023-12-11T01:21:06.607Z,13.20
2023-12-11T01:23:33.953Z,13.20
2023-12-11T01:26:03.815Z,13.20
2023-12-11T01:28:34.174Z,13.20
2023-12-11T01:31:01.843Z,13.30
2023-12-11T01:33:29.250Z,13.20
2023-12-11T01:35:56.585Z,13.20
2023-12-11T01:38:23.857Z,13.20
2023-12-11T01:40:51.359Z,13.20
2023-12-11T01:43:21.958Z,13.20
2023-12-11T01:46:10.111Z,13.20
2023-12-11T01:48:37.920Z,13.20
2023-12-11T01:51:08.961Z,13.20
2023-12-11T01:53:36.533Z,13.20
2023-12-11T01:56:04.364Z,13.20
2023-12-11T01:58:31.990Z,13.20
2023-12-11T02:01:00.317Z,13.30
2023-12-11T02:03:28.395Z,13.30
2023-12-11T02:05:55.783Z,13.30
2023-12-11T02:08:23.046Z,13.30
2023-12-11T02:10:53.122Z,13.30
2023-12-11T02:13:22.060Z,13.30
2023-12-11T02:15:52.026Z,13.30
2023-12-11T02:18:21.527Z,13.30
2023-12-11T02:20:49.094Z,13.30
2023-12-11T02:23:48.387Z,13.30
2023-12-11T02:26:20.373Z,13.20
2023-12-11T02:28:47.772Z,13.20
2023-12-11T02:31:15.874Z,13.20
2023-12-11T02:33:43.499Z,13.20
2023-12-11T02:36:11.366Z,13.20
2023-12-11T02:38:38.695Z,13.20
2023-12-11T02:41:06.488Z,13.20
2023-12-11T02:43:35.049Z,13.20
2023-12-11T02:46:04.188Z,13.20
2023-12-11T02:48:32.420Z,13.20
2023-12-11T02:51:00.026Z,13.20
2023-12-11T02:53:27.531Z,13.10
2023-12-11T02:55:54.735Z,13.10
2023-12-11T02:58:21.920Z,13.20
2023-12-11T03:00:49.326Z,13.20
2023-12-11T03:03:16.713Z,13.20
2023-12-11T03:05:44.106Z,13.20
2023-12-11T03:08:11.466Z,13.20
2023-12-11T03:10:38.724Z,13.20
2023-12-11T03:13:05.952Z,13.10
2023-12-11T03:15:33.562Z,13.10
2023-12-11T03:18:04.734Z,13.10
2023-12-11T03:20:32.094Z,13.10
2023-12-11T03:39:28.551Z,12.90
2023-12-11T03:41:56.487Z,12.80
2023-12-11T03:44:23.745Z,12.80
2023-12-11T03:46:51.056Z,12.80
2023-12-11T03:49:19.695Z,12.80
2023-12-11T03:51:48.213Z,12.80
2023-12-11T03:54:15.747Z,12.80
2023-12-11T03:56:43.510Z,12.80
2023-12-11T03:59:12.462Z,12.90
2023-12-11T04:01:41.262Z,12.90
2023-12-11T04:04:08.627Z,12.90
2023-12-11T04:06:36.658Z,12.80
2023-12-11T04:09:05.977Z,12.80
2023-12-11T04:11:34.222Z,12.90
2023-12-11T04:14:04.369Z,12.90
2023-12-11T04:16:33.678Z,12.90
2023-12-11T04:19:01.269Z,12.90
2023-12-11T04:21:28.875Z,12.90
2023-12-11T04:23:57.170Z,12.90
2023-12-11T04:26:24.470Z,12.90
2023-12-11T04:28:54.604Z,12.90
2023-12-11T04:31:24.788Z,12.90
2023-12-11T04:33:52.623Z,12.90
2023-12-11T04:36:23.036Z,12.90
2023-12-11T04:38:50.297Z,12.90
2023-12-11T04:41:17.583Z,12.90
2023-12-11T04:43:44.771Z,12.90
2023-12-11T04:55:46.678Z,12.80
2023-12-11T04:58:14.027Z,12.80
2023-12-11T05:00:41.308Z,12.70
2023-12-11T05:03:08.514Z,12.70
2023-12-11T05:05:37.262Z,12.60
2023-12-11T05:08:04.706Z,12.60
2023-12-11T05:10:35.374Z,12.60
2023-12-11T05:13:02.867Z,12.60
2023-12-11T05:15:30.237Z,12.50
2023-12-11T05:17:57.402Z,12.50
2023-12-11T05:20:24.642Z,12.50
2023-12-11T05:22:52.191Z,12.50
2023-12-11T05:25:20.520Z,12.50
2023-12-11T05:27:47.812Z,12.50
2023-12-11T05:30:15.200Z,12.50
2023-12-11T05:32:43.423Z,12.50
2023-12-11T05:35:12.861Z,12.50
2023-12-11T05:37:40.026Z,12.40
2023-12-11T05:40:21.774Z,12.50
2023-12-11T05:42:52.702Z,12.50
2023-12-11T05:45:20.049Z,12.50
2023-12-11T05:47:47.712Z,12.50
2023-12-11T05:50:15.386Z,12.50
2023-12-11T05:52:42.815Z,12.60
2023-12-11T05:55:10.416Z,12.50
2023-12-11T05:57:37.910Z,12.60
2023-12-11T06:00:06.966Z,12.60
2023-12-11T06:02:34.309Z,12.60
2023-12-11T06:05:01.697Z,12.60
2023-12-11T06:07:29.506Z,12.60
2023-12-11T06:09:56.955Z,12.70
2023-12-11T06:12:24.184Z,12.70
2023-12-11T06:14:51.956Z,12.70
2023-12-11T06:17:19.365Z,12.70
2023-12-11T06:19:46.810Z,12.70
2023-12-11T06:22:14.128Z,12.70
2023-12-11T06:24:45.367Z,12.70
2023-12-11T06:27:15.200Z,12.70
2023-12-11T06:29:44.949Z,12.80
2023-12-11T06:32:12.777Z,12.70
2023-12-11T06:34:40.139Z,12.80
2023-12-11T06:37:07.478Z,12.80
2023-12-11T06:39:35.094Z,12.80
2023-12-11T06:42:05.235Z,12.80
2023-12-11T06:44:42.929Z,12.70
2023-12-11T06:47:10.945Z,12.70
2023-12-11T06:49:39.005Z,12.80
2023-12-11T06:52:07.519Z,12.70
2023-12-11T06:59:21.982Z,12.70
2023-12-11T07:01:49.249Z,12.70
2023-12-11T07:08:26.542Z,12.70
2023-12-11T07:10:53.814Z,12.70
2023-12-11T07:13:21.152Z,12.70
2023-12-11T07:15:48.606Z,12.80
2023-12-11T07:18:16.691Z,12.70
2023-12-11T07:20:44.069Z,12.80
2023-12-11T07:23:13.916Z,12.80
2023-12-11T07:25:41.855Z,12.80
2023-12-11T07:28:09.196Z,12.90
2023-12-11T07:30:36.456Z,12.90
2023-12-11T07:33:04.125Z,12.90
2023-12-11T07:35:31.717Z,12.90
2023-12-11T07:38:02.201Z,12.90
2023-12-11T07:40:30.064Z,12.90
2023-12-11T07:42:57.243Z,12.90
2023-12-11T07:45:25.380Z,12.90
2023-12-11T07:47:52.813Z,12.90
2023-12-11T07:50:20.615Z,12.90
2023-12-11T07:52:47.812Z,12.90
2023-12-11T07:55:15.188Z,12.90
2023-12-11T07:57:42.872Z,12.90
2023-12-11T08:00:10.866Z,12.90
2023-12-11T08:02:38.401Z,12.90
2023-12-11T08:05:06.094Z,12.90
2023-12-11T08:07:33.737Z,12.80
2023-12-11T08:10:01.977Z,12.80
2023-12-11T08:12:29.441Z,12.80
2023-12-11T08:14:57.198Z,12.80
2023-12-11T08:17:25.786Z,12.80
2023-12-11T08:19:56.335Z,12.90
2023-12-11T08:22:23.944Z,12.90
2023-12-11T08:24:51.590Z,12.90
2023-12-11T08:27:18.900Z,12.90
2023-12-11T08:29:47.436Z,12.90
2023-12-11T08:32:14.743Z,12.90
2023-12-11T08:34:42.428Z,12.90
2023-12-11T08:37:12.424Z,12.90
2023-12-11T08:39:40.078Z,13.00
2023-12-11T08:42:07.456Z,13.00
2023-12-11T08:44:34.683Z,13.00
2023-12-11T08:47:02.549Z,13.00
2023-12-11T08:49:29.969Z,13.00
2023-12-11T08:51:57.246Z,13.00
2023-12-11T08:54:24.450Z,13.00
2023-12-11T08:56:52.490Z,13.10
2023-12-11T08:59:19.711Z,13.10
2023-12-11T09:01:47.986Z,13.10
2023-12-11T09:04:15.492Z,13.10
2023-12-11T09:06:43.010Z,13.10
2023-12-11T09:09:10.197Z,13.10
2023-12-11T09:11:37.526Z,13.20
2023-12-11T09:14:04.814Z,13.20
2023-12-11T09:16:32.144Z,13.20
2023-12-11T09:18:59.461Z,13.20
2023-12-11T09:21:26.743Z,13.30
2023-12-11T09:23:54.102Z,13.20
2023-12-11T09:26:21.368Z,13.30
2023-12-11T09:28:52.137Z,13.30
2023-12-11T09:31:24.933Z,13.30
2023-12-11T09:33:52.560Z,13.30
2023-12-11T09:36:20.878Z,13.30
2023-12-11T09:38:48.134Z,13.40
2023-12-11T09:41:15.342Z,13.40
2023-12-11T09:43:43.955Z,13.40
2023-12-11T09:46:17.475Z,13.40
2023-12-11T09:48:46.108Z,13.40
2023-12-11T09:51:16.553Z,13.40
2023-12-11T09:53:44.575Z,13.50
2023-12-11T09:56:14.367Z,13.50
2023-12-11T09:58:45.090Z,13.50
2023-12-11T10:01:17.293Z,13.50
2023-12-11T10:03:47.739Z,13.50
2023-12-11T10:06:16.790Z,13.50
2023-12-11T10:08:48.092Z,13.50
2023-12-11T10:11:17.397Z,13.50
2023-12-11T10:13:45.097Z,13.50
2023-12-11T10:16:34.160Z,13.50
2023-12-11T10:19:03.249Z,13.40
2023-12-11T10:21:41.545Z,13.30
2023-12-11T10:28:11.464Z,13.20
2023-12-11T10:30:57.751Z,13.10
2023-12-11T10:33:28.671Z,13.10
2023-12-11T10:36:14.214Z,13.10
2023-12-11T10:38:42.542Z,13.10
2023-12-11T10:41:25.773Z,13.10
2023-12-11T10:44:07.796Z,13.10
2023-12-11T10:46:40.839Z,13.20
2023-12-11T10:49:08.575Z,13.20
2023-12-11T10:51:38.056Z,13.30
2023-12-11T10:54:05.439Z,13.30
2023-12-11T10:56:33.553Z,13.40
2023-12-11T10:59:01.065Z,13.40
2023-12-11T11:01:29.308Z,13.50
2023-12-11T11:03:56.837Z,13.50
2023-12-11T11:06:29.681Z,13.60
2023-12-11T11:09:06.671Z,13.60
2023-12-11T11:11:42.801Z,13.70
2023-12-11T11:14:48.787Z,13.70
2023-12-11T11:17:17.892Z,13.80
2023-12-11T11:20:19.090Z,13.70
2023-12-11T11:22:47.742Z,13.80
2023-12-11T11:25:34.865Z,13.80
2023-12-11T11:28:03.156Z,13.80
2023-12-11T11:30:55.980Z,13.80
2023-12-11T11:33:25.211Z,13.80
2023-12-11T11:35:55.945Z,13.70
2023-12-11T11:39:00.118Z,13.80
2023-12-11T11:41:30.699Z,13.70
2023-12-11T11:44:07.708Z,13.70
2023-12-11T11:46:59.043Z,13.80
2023-12-11T11:49:33.664Z,13.80
2023-12-11T11:52:09.335Z,13.90
2023-12-11T11:54:41.004Z,13.80
2023-12-11T11:57:08.652Z,13.90
2023-12-11T11:59:46.071Z,13.90
2023-12-11T12:02:13.624Z,14.00
2023-12-11T12:04:40.907Z,14.00
2023-12-11T12:07:08.489Z,14.00
2023-12-11T12:09:35.899Z,13.90
2023-12-11T12:12:05.810Z,13.80
2023-12-11T12:14:33.733Z,13.70
2023-12-11T12:17:10.245Z,13.60
2023-12-11T12:19:38.236Z,13.50
2023-12-11T12:22:06.317Z,13.30
2023-12-11T12:24:44.328Z,13.20
2023-12-11T12:27:14.225Z,13.10
2023-12-11T12:29:42.292Z,13.00
2023-12-11T12:32:11.348Z,12.90
2023-12-11T12:34:40.251Z,12.80
2023-12-11T12:37:08.600Z,12.80
2023-12-11T12:39:36.706Z,12.70
2023-12-11T12:42:07.600Z,12.70
2023-12-11T12:44:41.330Z,12.60
2023-12-11T12:47:11.002Z,12.60
2023-12-11T12:49:38.489Z,12.60
2023-12-11T12:52:06.461Z,12.60
2023-12-11T12:54:50.894Z,12.60
2023-12-11T12:57:18.810Z,12.60
2023-12-11T12:59:47.700Z,12.50
2023-12-11T13:02:17.974Z,12.50
2023-12-11T13:04:58.116Z,12.50
2023-12-11T13:07:27.621Z,12.50
2023-12-11T13:09:57.882Z,12.50
2023-12-11T13:12:27.718Z,12.60
2023-12-11T13:14:57.078Z,12.70
2023-12-11T13:17:24.601Z,12.90
2023-12-11T13:19:52.752Z,13.10
2023-12-11T13:22:20.145Z,13.30
2023-12-11T13:24:47.601Z,13.60
2023-12-11T13:27:15.097Z,13.80
2023-12-11T13:29:42.329Z,14.00
2023-12-11T13:32:09.509Z,14.10
2023-12-11T13:34:36.848Z,14.20
2023-12-11T13:37:04.361Z,14.40
2023-12-11T13:39:32.338Z,14.50
2023-12-11T13:41:59.691Z,14.60
2023-12-11T13:44:27.007Z,14.70
2023-12-11T13:46:56.423Z,14.90
2023-12-11T13:49:24.144Z,15.00
2023-12-11T13:51:51.420Z,15.20
2023-12-11T13:54:18.617Z,15.40
2023-12-11T13:56:47.755Z,15.60
2023-12-11T13:59:16.025Z,15.80
2023-12-11T14:01:43.317Z,15.90
2023-12-11T14:04:10.727Z,16.00
2023-12-11T14:06:37.951Z,16.00
2023-12-11T14:09:05.364Z,15.90
2023-12-11T14:11:32.607Z,15.80
2023-12-11T14:13:59.782Z,15.60
2023-12-11T14:16:27.457Z,15.50
2023-12-11T14:18:54.885Z,15.40
2023-12-11T14:21:22.505Z,15.40
2023-12-11T14:23:49.881Z,15.30
2023-12-11T14:26:17.485Z,15.20
2023-12-11T14:28:44.838Z,15.10
2023-12-11T14:31:12.956Z,15.00
2023-12-11T14:33:40.983Z,14.90
2023-12-11T14:36:15.479Z,14.80
2023-12-11T14:38:52.886Z,14.70
2023-12-11T14:41:20.134Z,14.60
2023-12-11T14:43:47.356Z,14.50
2023-12-11T14:46:15.098Z,14.40
2023-12-11T14:48:42.396Z,14.40
2023-12-11T14:51:09.811Z,14.30
2023-12-11T14:53:37.022Z,14.30
2023-12-11T14:56:04.896Z,14.20
2023-12-11T14:58:36.176Z,14.10
2023-12-11T15:01:05.563Z,14.10
2023-12-11T15:03:33.998Z,14.00
2023-12-11T15:06:03.084Z,13.90
2023-12-11T15:08:31.047Z,13.90
2023-12-11T15:10:58.458Z,13.80
2023-12-11T15:13:26.038Z,13.70
2023-12-11T15:15:53.792Z,13.70
2023-12-11T15:18:21.163Z,13.60
2023-12-11T15:20:48.960Z,13.50
2023-12-11T15:23:17.471Z,13.50
2023-12-11T15:25:45.101Z,13.40
2023-12-11T15:28:12.282Z,13.30
2023-12-11T15:30:39.463Z,13.30
2023-12-11T15:33:09.247Z,13.20
2023-12-11T15:35:38.216Z,13.20
2023-12-11T15:38:05.811Z,13.20
2023-12-11T15:40:33.103Z,13.10
2023-12-11T15:43:00.427Z,13.10
2023-12-11T15:45:27.576Z,13.00
2023-12-11T15:48:01.431Z,13.00
2023-12-11T15:50:32.202Z,13.00
2023-12-11T15:53:00.217Z,12.90
2023-12-11T15:55:27.581Z,12.90
2023-12-11T15:57:55.216Z,12.90
2023-12-11T16:00:22.817Z,12.80
2023-12-11T16:15:19.818Z,12.70
2023-12-11T16:17:47.113Z,12.60
2023-12-11T16:20:14.571Z,12.60
2023-12-11T16:22:41.890Z,12.50
2023-12-11T16:25:11.705Z,12.50
2023-12-11T16:27:39.714Z,12.50
2023-12-11T16:30:11.250Z,12.50
2023-12-11T16:32:38.398Z,12.50
2023-12-11T16:35:09.093Z,12.40
2023-12-11T16:37:36.861Z,12.40
2023-12-11T16:40:08.710Z,12.40
2023-12-11T16:42:39.499Z,12.40
2023-12-11T16:45:11.984Z,12.40
2023-12-11T16:47:39.481Z,12.40
2023-12-11T16:50:09.889Z,12.40
2023-12-11T16:52:37.328Z,12.40
2023-12-11T16:55:05.427Z,12.40
2023-12-11T16:57:32.581Z,12.40
2023-12-11T16:59:59.667Z,12.40
2023-12-11T17:02:27.034Z,12.40
2023-12-11T17:04:54.230Z,12.40
2023-12-11T17:07:21.424Z,12.40
2023-12-11T17:09:48.744Z,12.40
2023-12-11T17:12:16.118Z,12.50
2023-12-11T17:14:44.304Z,12.50
2023-12-11T17:17:11.480Z,12.50
2023-12-11T17:19:38.844Z,12.50
2023-12-11T17:22:06.776Z,12.50
2023-12-11T17:24:39.346Z,12.50
2023-12-11T17:27:07.187Z,12.50
2023-12-11T17:29:34.999Z,12.50
2023-12-11T17:32:02.426Z,12.50
2023-12-11T17:34:29.945Z,12.60
2023-12-11T17:36:57.321Z,12.60
2023-12-11T17:39:24.728Z,12.60
2023-12-11T17:41:52.409Z,12.60
2023-12-11T17:44:19.559Z,12.60
2023-12-11T17:47:01.957Z,12.60
2023-12-11T17:49:35.982Z,12.60
2023-12-11T17:52:03.959Z,12.60
2023-12-11T17:54:34.078Z,12.60
2023-12-11T17:57:01.241Z,12.60
2023-12-11T17:59:34.596Z,12.60
2023-12-11T18:02:07.688Z,12.60
2023-12-11T18:04:36.594Z,12.70
2023-12-11T18:08:00.089Z,12.60
2023-12-11T18:10:29.445Z,12.70
2023-12-11T18:12:57.851Z,12.70
2023-12-11T18:16:25.662Z,12.70
2023-12-11T18:18:53.499Z,12.70
2023-12-11T18:21:20.847Z,12.70
2023-12-11T18:23:48.177Z,12.70
2023-12-11T18:26:15.743Z,12.70
2023-12-11T18:28:43.046Z,12.70
2023-12-11T18:31:10.505Z,12.70
2023-12-11T18:33:37.974Z,12.70
2023-12-11T18:36:05.949Z,12.70
2023-12-11T18:38:35.967Z,12.70
2023-12-11T18:41:04.278Z,12.70
2023-12-11T18:43:31.904Z,12.70
2023-12-11T18:45:59.108Z,12.70
2023-12-11T18:48:27.224Z,12.70
2023-12-11T18:50:54.504Z,12.70
2023-12-11T18:53:24.523Z,12.70
2023-12-11T18:56:00.764Z,12.60
2023-12-11T18:58:29.844Z,12.60
2023-12-11T19:00:57.736Z,12.60
2023-12-11T19:03:25.243Z,12.60
2023-12-11T19:05:52.583Z,12.60
2023-12-11T19:08:19.815Z,12.60
2023-12-11T19:10:47.497Z,12.50
2023-12-11T19:13:14.740Z,12.50
2023-12-11T19:15:41.953Z,12.50
2023-12-11T19:18:09.341Z,12.40
2023-12-11T19:20:36.701Z,12.40
2023-12-11T19:23:03.845Z,12.30
2023-12-11T19:25:31.333Z,12.30
2023-12-11T19:27:59.218Z,12.30
2023-12-11T19:30:28.006Z,12.20
2023-12-11T19:32:55.396Z,12.20
2023-12-11T19:35:22.916Z,12.20
2023-12-11T19:37:50.174Z,12.10
2023-12-11T19:40:17.949Z,12.10
2023-12-11T19:42:48.552Z,12.10
2023-12-11T19:45:16.858Z,12.10
2023-12-11T19:47:46.211Z,12.10
2023-12-11T19:50:13.650Z,12.10
2023-12-11T19:52:50.621Z,12.10
2023-12-11T19:55:19.338Z,12.00
2023-12-11T19:57:46.757Z,12.10
2023-12-11T20:00:14.798Z,12.10
2023-12-11T20:02:42.387Z,12.10
2023-12-11T20:05:09.808Z,12.10
2023-12-11T20:07:37.539Z,12.10
2023-12-11T20:10:05.519Z,12.10
2023-12-11T20:12:35.144Z,12.10
2023-12-11T20:15:02.961Z,12.10
2023-12-11T20:17:30.688Z,12.10
2023-12-11T20:20:01.269Z,12.10
2023-12-11T20:22:28.584Z,12.10
2023-12-11T20:24:56.151Z,12.10
2023-12-11T20:27:23.438Z,12.10
2023-12-11T20:29:51.150Z,12.10
2023-12-11T20:32:18.925Z,12.10
2023-12-11T20:34:46.853Z,12.10
2023-12-11T20:37:14.313Z,12.10
2023-12-11T20:39:41.491Z,12.10
2023-12-11T20:42:08.789Z,12.10
2023-12-11T20:44:35.988Z,12.10
2023-12-11T20:47:03.438Z,12.10
2023-12-11T20:49:30.806Z,12.10
2023-12-11T20:51:58.353Z,12.10
2023-12-11T20:54:25.686Z,12.00
2023-12-11T20:56:53.672Z,12.00
2023-12-11T20:59:20.956Z,12.00
2023-12-11T21:01:50.040Z,12.00
2023-12-11T21:04:19.768Z,12.00
2023-12-11T21:06:47.616Z,11.90
2023-12-11T21:09:17.111Z,11.90
2023-12-11T21:11:45.322Z,11.90
2023-12-11T21:14:15.152Z,11.80
2023-12-11T21:16:42.492Z,11.80
2023-12-11T21:19:09.869Z,11.80
2023-12-11T21:21:37.376Z,11.80
2023-12-11T21:24:05.138Z,11.80
2023-12-11T21:26:33.484Z,11.80
2023-12-11T21:29:00.907Z,11.80
2023-12-11T21:31:30.704Z,11.70
2023-12-11T21:33:59.179Z,11.70
2023-12-11T21:36:30.961Z,11.70
2023-12-11T21:38:59.704Z,11.70
2023-12-11T21:41:30.709Z,11.60
2023-12-11T21:43:59.981Z,11.60
2023-12-11T21:46:27.517Z,11.60
2023-12-11T21:48:58.694Z,11.60
2023-12-11T21:51:30.540Z,11.60
2023-12-11T21:53:58.014Z,11.60
2023-12-11T21:56:26.734Z,11.50
2023-12-11T21:58:54.223Z,11.50
2023-12-11T22:01:21.547Z,11.40
2023-12-11T22:03:49.105Z,11.40
2023-12-11T22:06:16.722Z,11.40
2023-12-11T22:08:43.819Z,11.40
2023-12-11T22:11:15.507Z,11.40
2023-12-11T22:13:49.238Z,11.40
2023-12-11T22:16:17.310Z,11.40
2023-12-11T22:18:48.637Z,11.40
2023-12-11T22:21:26.911Z,11.40
2023-12-11T22:23:54.401Z,11.40
2023-12-11T22:26:22.834Z,11.40
2023-12-11T22:28:50.136Z,11.40
2023-12-11T22:31:17.374Z,11.50
2023-12-11T22:33:44.650Z,11.50
2023-12-11T22:36:24.756Z,11.50
2023-12-11T22:39:48.423Z,11.50
2023-12-11T22:42:34.741Z,11.60
2023-12-11T22:45:02.333Z,11.60
2023-12-11T22:47:29.920Z,11.60
2023-12-11T22:49:57.563Z,11.60
2023-12-11T22:52:24.756Z,11.60
2023-12-11T22:54:51.839Z,11.60
2023-12-11T22:57:19.332Z,11.60
2023-12-11T22:59:46.772Z,11.70
2023-12-11T23:02:14.365Z,11.70
2023-12-11T23:04:42.111Z,11.70
2023-12-11T23:07:09.702Z,11.70
2023-12-11T23:09:41.648Z,11.70
2023-12-11T23:12:09.185Z,11.70
2023-12-11T23:14:36.423Z,11.70
2023-12-11T23:17:04.522Z,11.70
2023-12-11T23:19:31.943Z,11.70
2023-12-11T23:22:02.408Z,11.70
2023-12-11T23:24:29.696Z,11.70
2023-12-11T23:26:57.204Z,11.70
2023-12-11T23:29:24.359Z,11.70
2023-12-11T23:31:51.682Z,11.70
2023-12-11T23:34:19.277Z,11.70
2023-12-11T23:36:46.414Z,11.70
2023-12-11T23:39:13.633Z,11.70
2023-12-11T23:41:42.581Z,11.80
2023-12-11T23:44:10.117Z,11.80
2023-12-11T23:46:37.681Z,11.80
2023-12-11T23:49:05.627Z,11.70
2023-12-11T23:51:33.117Z,11.80
2023-12-11T23:54:00.849Z,11.80
2023-12-11T23:56:28.405Z,11.80
2023-12-11T23:58:55.615Z,11.80
